sensor_id;sensor_type;location;lat;lon;timestamp;P1;durP1;ratioP1;P2;durP2;ratioP2
10727;SDS011;5415;59.322;18.246;2022-11-20T00:02:09;1.73;;;1.63;;
10727;SDS011;5415;59.322;18.246;2022-11-20T00:04:37;1.53;;;1.43;;
10727;SDS011;5415;59.322;18.246;2022-11-20T00:07:04;1.73;;;1.63;;
10727;SDS011;5415;59.322;18.246;2022-11-20T00:09:32;1.83;;;1.73;;
10727;SDS011;5415;59.322;18.246;2022-11-20T00:12:02;1.30;;;1.20;;
10727;SDS011;5415;59.322;18.246;2022-11-20T00:14:29;1.00;;;1.00;;
10727;SDS011;5415;59.322;18.246;2022-11-20T00:16:57;1.20;;;1.10;;
10727;SDS011;5415;59.322;18.246;2022-11-20T00:19:27;2.17;;;1.20;;
10727;SDS011;5415;59.322;18.246;2022-11-20T00:21:54;1.50;;;1.10;;
10727;SDS011;5415;59.322;18.246;2022-11-20T00:24:22;1.50;;;1.40;;
10727;SDS011;5415;59.322;18.246;2022-11-20T00:26:49;1.30;;;1.20;;
10727;SDS011;5415;59.322;18.246;2022-11-20T00:29:19;1.20;;;1.20;;
10727;SDS011;5415;59.322;18.246;2022-11-20T00:31:47;1.40;;;1.30;;
10727;SDS011;5415;59.322;18.246;2022-11-20T00:34:14;1.20;;;1.10;;
10727;SDS011;5415;59.322;18.246;2022-11-20T00:36:41;1.40;;;1.30;;
10727;SDS011;5415;59.322;18.246;2022-11-20T00:39:09;1.40;;;1.30;;
10727;SDS011;5415;59.322;18.246;2022-11-20T00:41:37;1.00;;;1.00;;
10727;SDS011;5415;59.322;18.246;2022-11-20T00:44:05;1.30;;;1.20;;
10727;SDS011;5415;59.322;18.246;2022-11-20T00:46:34;1.47;;;1.37;;
10727;SDS011;5415;59.322;18.246;2022-11-20T00:49:02;1.27;;;1.17;;
10727;SDS011;5415;59.322;18.246;2022-11-20T00:51:31;1.60;;;1.47;;
10727;SDS011;5415;59.322;18.246;2022-11-20T00:53:58;1.37;;;1.20;;
10727;SDS011;5415;59.322;18.246;2022-11-20T00:56:27;1.40;;;1.30;;
10727;SDS011;5415;59.322;18.246;2022-11-20T00:58:54;1.40;;;1.30;;
10727;SDS011;5415;59.322;18.246;2022-11-20T01:01:23;1.90;;;1.40;;
10727;SDS011;5415;59.322;18.246;2022-11-20T01:03:53;1.43;;;1.33;;
10727;SDS011;5415;59.322;18.246;2022-11-20T01:06:22;1.40;;;1.30;;
10727;SDS011;5415;59.322;18.246;2022-11-20T01:08:50;1.90;;;1.27;;
10727;SDS011;5415;59.322;18.246;2022-11-20T01:11:20;1.60;;;1.50;;
10727;SDS011;5415;59.322;18.246;2022-11-20T01:13:47;1.23;;;1.13;;
10727;SDS011;5415;59.322;18.246;2022-11-20T01:16:17;1.47;;;1.37;;
10727;SDS011;5415;59.322;18.246;2022-11-20T01:18:46;1.43;;;1.33;;
10727;SDS011;5415;59.322;18.246;2022-11-20T01:21:16;1.63;;;1.53;;
10727;SDS011;5415;59.322;18.246;2022-11-20T01:23:44;1.30;;;1.20;;
10727;SDS011;5415;59.322;18.246;2022-11-20T01:26:13;1.70;;;1.60;;
10727;SDS011;5415;59.322;18.246;2022-11-20T01:28:42;1.20;;;1.20;;
10727;SDS011;5415;59.322;18.246;2022-11-20T01:31:10;1.33;;;1.23;;
10727;SDS011;5415;59.322;18.246;2022-11-20T01:33:38;1.60;;;1.33;;
10727;SDS011;5415;59.322;18.246;2022-11-20T01:36:07;1.20;;;1.10;;
10727;SDS011;5415;59.322;18.246;2022-11-20T01:38:37;1.63;;;1.40;;
10727;SDS011;5415;59.322;18.246;2022-11-20T01:41:04;1.60;;;1.50;;
10727;SDS011;5415;59.322;18.246;2022-11-20T01:43:32;1.10;;;1.10;;
10727;SDS011;5415;59.322;18.246;2022-11-20T01:46:00;1.33;;;1.23;;
10727;SDS011;5415;59.322;18.246;2022-11-20T01:48:30;1.70;;;1.60;;
10727;SDS011;5415;59.322;18.246;2022-11-20T01:50:58;1.73;;;1.37;;
10727;SDS011;5415;59.322;18.246;2022-11-20T01:53:34;1.77;;;1.67;;
10727;SDS011;5415;59.322;18.246;2022-11-20T01:56:07;1.47;;;1.37;;
10727;SDS011;5415;59.322;18.246;2022-11-20T01:58:38;1.63;;;1.53;;
10727;SDS011;5415;59.322;18.246;2022-11-20T02:01:09;1.40;;;1.30;;
10727;SDS011;5415;59.322;18.246;2022-11-20T02:03:37;1.80;;;1.37;;
10727;SDS011;5415;59.322;18.246;2022-11-20T02:06:06;1.60;;;1.50;;
10727;SDS011;5415;59.322;18.246;2022-11-20T02:08:36;1.43;;;1.33;;
10727;SDS011;5415;59.322;18.246;2022-11-20T02:11:06;1.57;;;1.40;;
10727;SDS011;5415;59.322;18.246;2022-11-20T02:13:35;1.40;;;1.30;;
10727;SDS011;5415;59.322;18.246;2022-11-20T02:16:08;1.50;;;1.40;;
10727;SDS011;5415;59.322;18.246;2022-11-20T02:18:36;1.13;;;1.13;;
10727;SDS011;5415;59.322;18.246;2022-11-20T02:21:05;1.17;;;1.17;;
10727;SDS011;5415;59.322;18.246;2022-11-20T02:23:36;1.47;;;1.37;;
10727;SDS011;5415;59.322;18.246;2022-11-20T02:26:07;1.90;;;1.40;;
10727;SDS011;5415;59.322;18.246;2022-11-20T02:28:36;1.90;;;1.70;;
10727;SDS011;5415;59.322;18.246;2022-11-20T02:31:04;1.40;;;1.30;;
10727;SDS011;5415;59.322;18.246;2022-11-20T02:33:31;1.37;;;1.23;;
10727;SDS011;5415;59.322;18.246;2022-11-20T02:36:00;1.40;;;1.30;;
10727;SDS011;5415;59.322;18.246;2022-11-20T02:38:28;1.40;;;1.30;;
10727;SDS011;5415;59.322;18.246;2022-11-20T02:40:56;1.63;;;1.50;;
10727;SDS011;5415;59.322;18.246;2022-11-20T02:43:25;1.30;;;1.20;;
10727;SDS011;5415;59.322;18.246;2022-11-20T02:45:54;1.47;;;1.37;;
10727;SDS011;5415;59.322;18.246;2022-11-20T02:48:21;1.50;;;1.40;;
10727;SDS011;5415;59.322;18.246;2022-11-20T02:50:49;2.00;;;1.47;;
10727;SDS011;5415;59.322;18.246;2022-11-20T02:53:17;1.27;;;1.17;;
10727;SDS011;5415;59.322;18.246;2022-11-20T02:55:44;1.33;;;1.20;;
10727;SDS011;5415;59.322;18.246;2022-11-20T02:58:12;1.17;;;1.10;;
10727;SDS011;5415;59.322;18.246;2022-11-20T03:00:41;2.67;;;1.50;;
10727;SDS011;5415;59.322;18.246;2022-11-20T03:03:09;1.40;;;1.30;;
10727;SDS011;5415;59.322;18.246;2022-11-20T03:05:36;1.23;;;1.13;;
10727;SDS011;5415;59.322;18.246;2022-11-20T03:08:05;0.90;;;0.90;;
10727;SDS011;5415;59.322;18.246;2022-11-20T03:10:33;1.00;;;1.00;;
10727;SDS011;5415;59.322;18.246;2022-11-20T03:13:00;1.10;;;1.10;;
10727;SDS011;5415;59.322;18.246;2022-11-20T03:15:28;1.30;;;1.20;;
10727;SDS011;5415;59.322;18.246;2022-11-20T03:17:58;0.97;;;0.97;;
10727;SDS011;5415;59.322;18.246;2022-11-20T03:20:25;1.10;;;1.10;;
10727;SDS011;5415;59.322;18.246;2022-11-20T03:22:53;1.40;;;1.30;;
10727;SDS011;5415;59.322;18.246;2022-11-20T03:25:21;1.20;;;1.20;;
10727;SDS011;5415;59.322;18.246;2022-11-20T03:27:49;1.10;;;1.00;;
10727;SDS011;5415;59.322;18.246;2022-11-20T03:30:16;1.23;;;1.13;;
10727;SDS011;5415;59.322;18.246;2022-11-20T03:32:44;1.40;;;1.30;;
10727;SDS011;5415;59.322;18.246;2022-11-20T03:35:13;1.40;;;1.20;;
10727;SDS011;5415;59.322;18.246;2022-11-20T03:37:41;1.20;;;1.10;;
10727;SDS011;5415;59.322;18.246;2022-11-20T03:40:10;1.20;;;1.20;;
10727;SDS011;5415;59.322;18.246;2022-11-20T03:42:38;1.57;;;1.10;;
10727;SDS011;5415;59.322;18.246;2022-11-20T03:45:12;1.30;;;1.20;;
10727;SDS011;5415;59.322;18.246;2022-11-20T03:47:39;1.20;;;1.20;;
10727;SDS011;5415;59.322;18.246;2022-11-20T03:50:07;1.63;;;1.50;;
10727;SDS011;5415;59.322;18.246;2022-11-20T03:52:37;1.10;;;1.10;;
10727;SDS011;5415;59.322;18.246;2022-11-20T03:55:07;1.40;;;1.30;;
10727;SDS011;5415;59.322;18.246;2022-11-20T03:57:34;1.30;;;1.20;;
10727;SDS011;5415;59.322;18.246;2022-11-20T04:00:04;2.23;;;1.30;;
10727;SDS011;5415;59.322;18.246;2022-11-20T04:02:32;1.30;;;1.20;;
10727;SDS011;5415;59.322;18.246;2022-11-20T04:05:00;1.30;;;1.20;;
10727;SDS011;5415;59.322;18.246;2022-11-20T04:07:27;1.40;;;1.30;;
10727;SDS011;5415;59.322;18.246;2022-11-20T04:09:59;1.30;;;1.20;;
10727;SDS011;5415;59.322;18.246;2022-11-20T04:12:27;1.30;;;1.20;;
10727;SDS011;5415;59.322;18.246;2022-11-20T04:14:55;1.30;;;1.20;;
10727;SDS011;5415;59.322;18.246;2022-11-20T04:17:23;1.40;;;1.10;;
10727;SDS011;5415;59.322;18.246;2022-11-20T04:19:51;1.43;;;1.33;;
10727;SDS011;5415;59.322;18.246;2022-11-20T04:22:18;1.53;;;1.43;;
10727;SDS011;5415;59.322;18.246;2022-11-20T04:24:46;1.00;;;1.00;;
10727;SDS011;5415;59.322;18.246;2022-11-20T04:27:16;1.33;;;1.23;;
10727;SDS011;5415;59.322;18.246;2022-11-20T04:29:44;1.30;;;1.20;;
10727;SDS011;5415;59.322;18.246;2022-11-20T04:32:11;1.70;;;1.27;;
10727;SDS011;5415;59.322;18.246;2022-11-20T04:34:40;1.60;;;1.40;;
10727;SDS011;5415;59.322;18.246;2022-11-20T04:37:08;1.40;;;1.30;;
10727;SDS011;5415;59.322;18.246;2022-11-20T04:39:37;0.90;;;0.90;;
10727;SDS011;5415;59.322;18.246;2022-11-20T04:42:05;1.40;;;1.30;;
10727;SDS011;5415;59.322;18.246;2022-11-20T04:44:51;1.63;;;1.30;;
10727;SDS011;5415;59.322;18.246;2022-11-20T04:47:20;1.30;;;1.20;;
10727;SDS011;5415;59.322;18.246;2022-11-20T04:49:48;1.30;;;1.20;;
10727;SDS011;5415;59.322;18.246;2022-11-20T04:52:15;1.20;;;1.10;;
10727;SDS011;5415;59.322;18.246;2022-11-20T04:54:45;1.00;;;0.90;;
10727;SDS011;5415;59.322;18.246;2022-11-20T04:57:13;1.30;;;1.10;;
10727;SDS011;5415;59.322;18.246;2022-11-20T04:59:42;1.90;;;1.10;;
10727;SDS011;5415;59.322;18.246;2022-11-20T05:02:11;1.27;;;1.17;;
10727;SDS011;5415;59.322;18.246;2022-11-20T05:04:41;2.50;;;1.27;;
10727;SDS011;5415;59.322;18.246;2022-11-20T05:07:09;1.30;;;1.20;;
10727;SDS011;5415;59.322;18.246;2022-11-20T05:09:36;1.63;;;1.40;;
10727;SDS011;5415;59.322;18.246;2022-11-20T05:12:04;1.30;;;1.17;;
10727;SDS011;5415;59.322;18.246;2022-11-20T05:14:32;1.07;;;1.03;;
10727;SDS011;5415;59.322;18.246;2022-11-20T05:16:59;1.10;;;1.10;;
10727;SDS011;5415;59.322;18.246;2022-11-20T05:19:29;1.00;;;1.00;;
10727;SDS011;5415;59.322;18.246;2022-11-20T05:21:58;1.40;;;1.30;;
10727;SDS011;5415;59.322;18.246;2022-11-20T05:24:26;1.20;;;1.10;;
10727;SDS011;5415;59.322;18.246;2022-11-20T05:26:53;1.17;;;1.10;;
10727;SDS011;5415;59.322;18.246;2022-11-20T05:29:22;0.93;;;0.93;;
10727;SDS011;5415;59.322;18.246;2022-11-20T05:31:50;1.17;;;1.10;;
10727;SDS011;5415;59.322;18.246;2022-11-20T05:34:18;1.03;;;1.03;;
10727;SDS011;5415;59.322;18.246;2022-11-20T05:36:49;1.40;;;1.10;;
10727;SDS011;5415;59.322;18.246;2022-11-20T05:39:18;1.63;;;1.37;;
10727;SDS011;5415;59.322;18.246;2022-11-20T05:41:45;1.00;;;1.00;;
10727;SDS011;5415;59.322;18.246;2022-11-20T05:44:34;1.07;;;1.00;;
10727;SDS011;5415;59.322;18.246;2022-11-20T05:47:04;1.03;;;1.00;;
10727;SDS011;5415;59.322;18.246;2022-11-20T05:49:33;2.27;;;1.40;;
10727;SDS011;5415;59.322;18.246;2022-11-20T05:52:03;1.97;;;1.40;;
10727;SDS011;5415;59.322;18.246;2022-11-20T05:54:30;1.20;;;1.10;;
10727;SDS011;5415;59.322;18.246;2022-11-20T05:56:58;1.10;;;1.10;;
10727;SDS011;5415;59.322;18.246;2022-11-20T05:59:40;1.33;;;1.23;;
10727;SDS011;5415;59.322;18.246;2022-11-20T06:02:07;2.10;;;1.10;;
10727;SDS011;5415;59.322;18.246;2022-11-20T06:04:35;1.40;;;1.30;;
10727;SDS011;5415;59.322;18.246;2022-11-20T06:07:05;1.00;;;1.00;;
10727;SDS011;5415;59.322;18.246;2022-11-20T06:09:33;1.03;;;1.00;;
10727;SDS011;5415;59.322;18.246;2022-11-20T06:12:01;1.50;;;1.10;;
10727;SDS011;5415;59.322;18.246;2022-11-20T06:14:29;0.90;;;0.90;;
10727;SDS011;5415;59.322;18.246;2022-11-20T06:16:56;0.90;;;0.90;;
10727;SDS011;5415;59.322;18.246;2022-11-20T06:19:25;1.40;;;1.10;;
10727;SDS011;5415;59.322;18.246;2022-11-20T06:21:55;1.10;;;1.10;;
10727;SDS011;5415;59.322;18.246;2022-11-20T06:24:24;0.97;;;0.97;;
10727;SDS011;5415;59.322;18.246;2022-11-20T06:26:52;0.90;;;0.90;;
10727;SDS011;5415;59.322;18.246;2022-11-20T06:29:20;1.63;;;0.90;;
10727;SDS011;5415;59.322;18.246;2022-11-20T06:31:47;1.20;;;1.10;;
10727;SDS011;5415;59.322;18.246;2022-11-20T06:34:15;1.10;;;1.10;;
10727;SDS011;5415;59.322;18.246;2022-11-20T06:36:44;1.10;;;1.10;;
10727;SDS011;5415;59.322;18.246;2022-11-20T06:39:12;2.00;;;1.27;;
10727;SDS011;5415;59.322;18.246;2022-11-20T06:41:42;0.97;;;0.93;;
10727;SDS011;5415;59.322;18.246;2022-11-20T06:44:10;1.33;;;0.97;;
10727;SDS011;5415;59.322;18.246;2022-11-20T06:46:39;0.90;;;0.90;;
10727;SDS011;5415;59.322;18.246;2022-11-20T06:49:09;1.10;;;1.10;;
10727;SDS011;5415;59.322;18.246;2022-11-20T06:51:37;1.37;;;1.27;;
10727;SDS011;5415;59.322;18.246;2022-11-20T06:54:05;0.87;;;0.87;;
10727;SDS011;5415;59.322;18.246;2022-11-20T06:56:32;0.93;;;0.93;;
10727;SDS011;5415;59.322;18.246;2022-11-20T06:59:05;1.20;;;1.10;;
10727;SDS011;5415;59.322;18.246;2022-11-20T07:01:33;1.40;;;1.30;;
10727;SDS011;5415;59.322;18.246;2022-11-20T07:04:01;1.10;;;1.10;;
10727;SDS011;5415;59.322;18.246;2022-11-20T07:06:29;1.10;;;1.10;;
10727;SDS011;5415;59.322;18.246;2022-11-20T07:08:58;0.93;;;0.93;;
10727;SDS011;5415;59.322;18.246;2022-11-20T07:11:26;1.10;;;1.00;;
10727;SDS011;5415;59.322;18.246;2022-11-20T07:13:54;0.97;;;0.97;;
10727;SDS011;5415;59.322;18.246;2022-11-20T07:16:23;1.10;;;1.00;;
10727;SDS011;5415;59.322;18.246;2022-11-20T07:18:51;1.10;;;1.00;;
10727;SDS011;5415;59.322;18.246;2022-11-20T07:21:19;1.43;;;1.33;;
10727;SDS011;5415;59.322;18.246;2022-11-20T07:23:47;1.33;;;1.10;;
10727;SDS011;5415;59.322;18.246;2022-11-20T07:26:15;0.80;;;0.80;;
10727;SDS011;5415;59.322;18.246;2022-11-20T07:28:43;1.03;;;1.03;;
10727;SDS011;5415;59.322;18.246;2022-11-20T07:31:11;0.73;;;0.73;;
10727;SDS011;5415;59.322;18.246;2022-11-20T07:33:40;0.80;;;0.80;;
10727;SDS011;5415;59.322;18.246;2022-11-20T07:36:08;0.90;;;0.90;;
10727;SDS011;5415;59.322;18.246;2022-11-20T07:38:36;0.87;;;0.87;;
10727;SDS011;5415;59.322;18.246;2022-11-20T07:41:04;1.00;;;1.00;;
10727;SDS011;5415;59.322;18.246;2022-11-20T07:43:34;0.83;;;0.80;;
10727;SDS011;5415;59.322;18.246;2022-11-20T07:46:01;0.90;;;0.90;;
10727;SDS011;5415;59.322;18.246;2022-11-20T07:48:28;1.97;;;0.90;;
10727;SDS011;5415;59.322;18.246;2022-11-20T07:50:59;0.70;;;0.70;;
10727;SDS011;5415;59.322;18.246;2022-11-20T07:53:26;0.83;;;0.80;;
10727;SDS011;5415;59.322;18.246;2022-11-20T07:55:55;0.90;;;0.90;;
10727;SDS011;5415;59.322;18.246;2022-11-20T07:58:25;0.70;;;0.70;;
10727;SDS011;5415;59.322;18.246;2022-11-20T08:00:53;0.80;;;0.80;;
10727;SDS011;5415;59.322;18.246;2022-11-20T08:03:21;0.80;;;0.80;;
10727;SDS011;5415;59.322;18.246;2022-11-20T08:05:48;0.97;;;0.87;;
10727;SDS011;5415;59.322;18.246;2022-11-20T08:08:19;0.83;;;0.83;;
10727;SDS011;5415;59.322;18.246;2022-11-20T08:10:47;0.90;;;0.90;;
10727;SDS011;5415;59.322;18.246;2022-11-20T08:13:15;1.07;;;0.93;;
10727;SDS011;5415;59.322;18.246;2022-11-20T08:16:00;0.83;;;0.80;;
10727;SDS011;5415;59.322;18.246;2022-11-20T08:18:27;0.77;;;0.77;;
10727;SDS011;5415;59.322;18.246;2022-11-20T08:20:55;0.90;;;0.90;;
10727;SDS011;5415;59.322;18.246;2022-11-20T08:23:25;0.50;;;0.50;;
10727;SDS011;5415;59.322;18.246;2022-11-20T08:25:52;0.80;;;0.80;;
10727;SDS011;5415;59.322;18.246;2022-11-20T08:28:20;0.80;;;0.80;;
10727;SDS011;5415;59.322;18.246;2022-11-20T08:30:48;1.00;;;1.00;;
10727;SDS011;5415;59.322;18.246;2022-11-20T08:33:17;1.07;;;0.97;;
10727;SDS011;5415;59.322;18.246;2022-11-20T08:35:45;1.00;;;1.00;;
10727;SDS011;5415;59.322;18.246;2022-11-20T08:38:13;1.00;;;1.00;;
10727;SDS011;5415;59.322;18.246;2022-11-20T08:40:42;1.00;;;1.00;;
10727;SDS011;5415;59.322;18.246;2022-11-20T08:43:30;0.70;;;0.70;;
10727;SDS011;5415;59.322;18.246;2022-11-20T08:45:58;0.90;;;0.90;;
10727;SDS011;5415;59.322;18.246;2022-11-20T08:48:26;1.13;;;1.00;;
10727;SDS011;5415;59.322;18.246;2022-11-20T08:50:57;1.00;;;1.00;;
10727;SDS011;5415;59.322;18.246;2022-11-20T08:53:24;1.07;;;0.87;;
10727;SDS011;5415;59.322;18.246;2022-11-20T08:55:54;0.80;;;0.80;;
10727;SDS011;5415;59.322;18.246;2022-11-20T08:58:21;0.93;;;0.90;;
10727;SDS011;5415;59.322;18.246;2022-11-20T09:00:49;1.00;;;0.80;;
10727;SDS011;5415;59.322;18.246;2022-11-20T09:03:16;1.10;;;1.00;;
10727;SDS011;5415;59.322;18.246;2022-11-20T09:05:44;1.60;;;0.90;;
10727;SDS011;5415;59.322;18.246;2022-11-20T09:08:11;0.90;;;0.90;;
10727;SDS011;5415;59.322;18.246;2022-11-20T09:10:39;1.27;;;0.97;;
10727;SDS011;5415;59.322;18.246;2022-11-20T09:13:08;0.80;;;0.80;;
10727;SDS011;5415;59.322;18.246;2022-11-20T09:15:35;0.90;;;0.90;;
10727;SDS011;5415;59.322;18.246;2022-11-20T09:18:03;1.63;;;0.80;;
10727;SDS011;5415;59.322;18.246;2022-11-20T09:20:30;0.73;;;0.73;;
10727;SDS011;5415;59.322;18.246;2022-11-20T09:22:58;1.00;;;1.00;;
10727;SDS011;5415;59.322;18.246;2022-11-20T09:25:26;0.80;;;0.80;;
10727;SDS011;5415;59.322;18.246;2022-11-20T09:27:57;0.70;;;0.70;;
10727;SDS011;5415;59.322;18.246;2022-11-20T09:30:26;1.17;;;0.87;;
10727;SDS011;5415;59.322;18.246;2022-11-20T09:32:53;0.80;;;0.80;;
10727;SDS011;5415;59.322;18.246;2022-11-20T09:35:21;0.70;;;0.70;;
10727;SDS011;5415;59.322;18.246;2022-11-20T09:37:49;0.80;;;0.80;;
10727;SDS011;5415;59.322;18.246;2022-11-20T09:40:18;0.70;;;0.70;;
10727;SDS011;5415;59.322;18.246;2022-11-20T09:42:47;1.17;;;1.10;;
10727;SDS011;5415;59.322;18.246;2022-11-20T09:45:21;0.80;;;0.80;;
10727;SDS011;5415;59.322;18.246;2022-11-20T09:48:01;0.87;;;0.87;;
10727;SDS011;5415;59.322;18.246;2022-11-20T09:50:32;1.03;;;1.03;;
10727;SDS011;5415;59.322;18.246;2022-11-20T09:53:04;1.30;;;1.20;;
10727;SDS011;5415;59.322;18.246;2022-11-20T09:55:36;0.80;;;0.80;;
10727;SDS011;5415;59.322;18.246;2022-11-20T09:58:06;0.70;;;0.70;;
10727;SDS011;5415;59.322;18.246;2022-11-20T10:00:35;0.70;;;0.70;;
10727;SDS011;5415;59.322;18.246;2022-11-20T10:03:11;1.23;;;0.90;;
10727;SDS011;5415;59.322;18.246;2022-11-20T10:05:41;0.60;;;0.60;;
10727;SDS011;5415;59.322;18.246;2022-11-20T10:08:13;0.80;;;0.80;;
10727;SDS011;5415;59.322;18.246;2022-11-20T10:10:42;0.90;;;0.90;;
10727;SDS011;5415;59.322;18.246;2022-11-20T10:13:17;0.50;;;0.50;;
10727;SDS011;5415;59.322;18.246;2022-11-20T10:15:52;0.70;;;0.70;;
10727;SDS011;5415;59.322;18.246;2022-11-20T10:18:27;0.93;;;0.70;;
10727;SDS011;5415;59.322;18.246;2022-11-20T10:20:58;0.80;;;0.80;;
10727;SDS011;5415;59.322;18.246;2022-11-20T10:26:21;0.80;;;0.80;;
10727;SDS011;5415;59.322;18.246;2022-11-20T10:28:56;0.70;;;0.63;;
10727;SDS011;5415;59.322;18.246;2022-11-20T10:31:27;0.70;;;0.70;;
10727;SDS011;5415;59.322;18.246;2022-11-20T10:34:03;1.10;;;0.70;;
10727;SDS011;5415;59.322;18.246;2022-11-20T10:36:34;1.00;;;0.90;;
10727;SDS011;5415;59.322;18.246;2022-11-20T10:39:04;0.80;;;0.80;;
10727;SDS011;5415;59.322;18.246;2022-11-20T10:41:34;0.63;;;0.63;;
10727;SDS011;5415;59.322;18.246;2022-11-20T10:44:05;0.73;;;0.73;;
10727;SDS011;5415;59.322;18.246;2022-11-20T10:46:34;0.80;;;0.80;;
10727;SDS011;5415;59.322;18.246;2022-11-20T10:49:15;0.80;;;0.80;;
10727;SDS011;5415;59.322;18.246;2022-11-20T10:51:47;0.93;;;0.90;;
10727;SDS011;5415;59.322;18.246;2022-11-20T10:54:17;1.00;;;1.00;;
10727;SDS011;5415;59.322;18.246;2022-11-20T10:56:50;0.70;;;0.70;;
10727;SDS011;5415;59.322;18.246;2022-11-20T10:59:26;0.87;;;0.87;;
10727;SDS011;5415;59.322;18.246;2022-11-20T11:01:55;0.90;;;0.90;;
10727;SDS011;5415;59.322;18.246;2022-11-20T11:04:28;1.80;;;0.83;;
10727;SDS011;5415;59.322;18.246;2022-11-20T11:06:58;1.60;;;1.20;;
10727;SDS011;5415;59.322;18.246;2022-11-20T11:09:29;1.27;;;1.17;;
10727;SDS011;5415;59.322;18.246;2022-11-20T11:11:59;0.73;;;0.73;;
10727;SDS011;5415;59.322;18.246;2022-11-20T11:14:26;2.00;;;1.20;;
10727;SDS011;5415;59.322;18.246;2022-11-20T11:16:54;1.70;;;1.60;;
10727;SDS011;5415;59.322;18.246;2022-11-20T11:19:22;2.30;;;1.33;;
10727;SDS011;5415;59.322;18.246;2022-11-20T11:21:51;1.10;;;1.00;;
10727;SDS011;5415;59.322;18.246;2022-11-20T11:24:20;0.93;;;0.90;;
10727;SDS011;5415;59.322;18.246;2022-11-20T11:26:52;0.90;;;0.90;;
10727;SDS011;5415;59.322;18.246;2022-11-20T11:29:20;1.10;;;1.10;;
10727;SDS011;5415;59.322;18.246;2022-11-20T11:31:48;1.30;;;1.07;;
10727;SDS011;5415;59.322;18.246;2022-11-20T11:34:16;0.93;;;0.80;;
10727;SDS011;5415;59.322;18.246;2022-11-20T11:36:49;2.33;;;1.33;;
10727;SDS011;5415;59.322;18.246;2022-11-20T11:39:21;1.40;;;1.30;;
10727;SDS011;5415;59.322;18.246;2022-11-20T11:41:50;0.87;;;0.87;;
10727;SDS011;5415;59.322;18.246;2022-11-20T11:44:19;1.00;;;1.00;;
10727;SDS011;5415;59.322;18.246;2022-11-20T11:47:05;0.90;;;0.80;;
10727;SDS011;5415;59.322;18.246;2022-11-20T11:49:35;0.93;;;0.90;;
10727;SDS011;5415;59.322;18.246;2022-11-20T11:52:04;0.83;;;0.80;;
10727;SDS011;5415;59.322;18.246;2022-11-20T11:54:36;2.70;;;2.30;;
10727;SDS011;5415;59.322;18.246;2022-11-20T11:57:07;1.47;;;1.37;;
10727;SDS011;5415;59.322;18.246;2022-11-20T11:59:41;1.60;;;1.50;;
10727;SDS011;5415;59.322;18.246;2022-11-20T12:02:14;1.53;;;0.80;;
10727;SDS011;5415;59.322;18.246;2022-11-20T12:04:44;1.83;;;1.70;;
10727;SDS011;5415;59.322;18.246;2022-11-20T12:07:14;1.23;;;1.13;;
10727;SDS011;5415;59.322;18.246;2022-11-20T12:09:46;1.40;;;1.30;;
10727;SDS011;5415;59.322;18.246;2022-11-20T12:12:17;1.20;;;1.10;;
10727;SDS011;5415;59.322;18.246;2022-11-20T12:14:46;0.80;;;0.80;;
10727;SDS011;5415;59.322;18.246;2022-11-20T12:17:16;0.83;;;0.83;;
10727;SDS011;5415;59.322;18.246;2022-11-20T12:19:44;1.37;;;1.27;;
10727;SDS011;5415;59.322;18.246;2022-11-20T12:22:13;3.90;;;1.40;;
10727;SDS011;5415;59.322;18.246;2022-11-20T12:24:51;2.07;;;1.60;;
10727;SDS011;5415;59.322;18.246;2022-11-20T12:27:40;1.63;;;1.30;;
10727;SDS011;5415;59.322;18.246;2022-11-20T12:30:13;2.20;;;2.00;;
10727;SDS011;5415;59.322;18.246;2022-11-20T12:32:48;2.33;;;1.87;;
10727;SDS011;5415;59.322;18.246;2022-11-20T12:35:25;2.27;;;1.70;;
10727;SDS011;5415;59.322;18.246;2022-11-20T12:37:57;2.43;;;1.60;;
10727;SDS011;5415;59.322;18.246;2022-11-20T12:40:31;3.83;;;1.93;;
10727;SDS011;5415;59.322;18.246;2022-11-20T12:43:06;1.43;;;1.33;;
10727;SDS011;5415;59.322;18.246;2022-11-20T12:48:54;2.23;;;1.83;;
10727;SDS011;5415;59.322;18.246;2022-11-20T12:51:33;2.40;;;2.03;;
10727;SDS011;5415;59.322;18.246;2022-11-20T12:54:08;2.67;;;2.10;;
10727;SDS011;5415;59.322;18.246;2022-11-20T12:56:48;1.67;;;1.57;;
10727;SDS011;5415;59.322;18.246;2022-11-20T12:59:23;2.23;;;2.03;;
10727;SDS011;5415;59.322;18.246;2022-11-20T13:01:56;3.10;;;1.93;;
10727;SDS011;5415;59.322;18.246;2022-11-20T13:04:34;3.10;;;1.83;;
10727;SDS011;5415;59.322;18.246;2022-11-20T13:07:07;1.57;;;1.47;;
10727;SDS011;5415;59.322;18.246;2022-11-20T13:09:39;2.67;;;1.87;;
10727;SDS011;5415;59.322;18.246;2022-11-20T13:12:15;2.07;;;1.63;;
10727;SDS011;5415;59.322;18.246;2022-11-20T13:14:45;2.33;;;2.00;;
10727;SDS011;5415;59.322;18.246;2022-11-20T13:17:16;2.40;;;2.03;;
10727;SDS011;5415;59.322;18.246;2022-11-20T13:19:47;1.60;;;1.50;;
10727;SDS011;5415;59.322;18.246;2022-11-20T13:22:24;3.60;;;2.20;;
10727;SDS011;5415;59.322;18.246;2022-11-20T13:24:52;2.47;;;1.73;;
10727;SDS011;5415;59.322;18.246;2022-11-20T13:27:21;1.60;;;1.50;;
10727;SDS011;5415;59.322;18.246;2022-11-20T13:29:59;1.10;;;1.00;;
10727;SDS011;5415;59.322;18.246;2022-11-20T13:32:27;2.10;;;1.30;;
10727;SDS011;5415;59.322;18.246;2022-11-20T13:34:58;2.90;;;1.60;;
10727;SDS011;5415;59.322;18.246;2022-11-20T13:37:27;2.63;;;1.70;;
10727;SDS011;5415;59.322;18.246;2022-11-20T13:40:05;2.17;;;1.53;;
10727;SDS011;5415;59.322;18.246;2022-11-20T13:42:37;0.90;;;0.90;;
10727;SDS011;5415;59.322;18.246;2022-11-20T13:45:08;1.77;;;1.27;;
10727;SDS011;5415;59.322;18.246;2022-11-20T13:47:36;1.57;;;1.23;;
10727;SDS011;5415;59.322;18.246;2022-11-20T13:50:04;1.67;;;1.27;;
10727;SDS011;5415;59.322;18.246;2022-11-20T13:52:39;1.20;;;1.10;;
10727;SDS011;5415;59.322;18.246;2022-11-20T13:55:13;2.00;;;1.90;;
10727;SDS011;5415;59.322;18.246;2022-11-20T13:57:51;3.27;;;1.33;;
10727;SDS011;5415;59.322;18.246;2022-11-20T14:00:22;0.93;;;0.93;;
10727;SDS011;5415;59.322;18.246;2022-11-20T14:02:52;1.13;;;1.03;;
10727;SDS011;5415;59.322;18.246;2022-11-20T14:05:25;1.53;;;0.83;;
10727;SDS011;5415;59.322;18.246;2022-11-20T14:07:52;1.40;;;1.20;;
10727;SDS011;5415;59.322;18.246;2022-11-20T14:10:23;1.10;;;1.00;;
10727;SDS011;5415;59.322;18.246;2022-11-20T14:12:52;2.20;;;1.13;;
10727;SDS011;5415;59.322;18.246;2022-11-20T14:15:27;1.03;;;0.93;;
10727;SDS011;5415;59.322;18.246;2022-11-20T14:17:55;0.90;;;0.90;;
10727;SDS011;5415;59.322;18.246;2022-11-20T14:20:23;1.33;;;1.07;;
10727;SDS011;5415;59.322;18.246;2022-11-20T14:22:52;1.10;;;1.00;;
10727;SDS011;5415;59.322;18.246;2022-11-20T14:25:20;1.20;;;1.20;;
10727;SDS011;5415;59.322;18.246;2022-11-20T14:27:54;1.43;;;1.27;;
10727;SDS011;5415;59.322;18.246;2022-11-20T14:30:24;3.03;;;1.50;;
10727;SDS011;5415;59.322;18.246;2022-11-20T14:32:54;1.13;;;1.10;;
10727;SDS011;5415;59.322;18.246;2022-11-20T14:35:24;1.57;;;1.20;;
10727;SDS011;5415;59.322;18.246;2022-11-20T14:37:51;1.10;;;1.00;;
10727;SDS011;5415;59.322;18.246;2022-11-20T14:40:24;1.00;;;1.00;;
10727;SDS011;5415;59.322;18.246;2022-11-20T14:42:54;0.70;;;0.70;;
10727;SDS011;5415;59.322;18.246;2022-11-20T14:45:22;1.37;;;1.30;;
10727;SDS011;5415;59.322;18.246;2022-11-20T14:47:50;1.40;;;1.30;;
10727;SDS011;5415;59.322;18.246;2022-11-20T14:50:19;1.57;;;1.23;;
10727;SDS011;5415;59.322;18.246;2022-11-20T14:52:52;1.20;;;1.10;;
10727;SDS011;5415;59.322;18.246;2022-11-20T14:55:28;1.67;;;1.37;;
10727;SDS011;5415;59.322;18.246;2022-11-20T14:57:58;1.10;;;1.10;;
10727;SDS011;5415;59.322;18.246;2022-11-20T15:00:26;1.20;;;1.10;;
10727;SDS011;5415;59.322;18.246;2022-11-20T15:02:55;1.60;;;1.37;;
10727;SDS011;5415;59.322;18.246;2022-11-20T15:05:25;1.30;;;1.20;;
10727;SDS011;5415;59.322;18.246;2022-11-20T15:08:04;1.77;;;1.47;;
10727;SDS011;5415;59.322;18.246;2022-11-20T15:10:32;1.67;;;1.40;;